VKG4905 EKCH-EKBI
Flight info
| Callsign | VKG4905 |
|---|---|
| Flight time | 0h 33m |
| Altitude | 22000 |
| Route | ODDON DCT LOKSA |
| Aircraft | A321/M-SDE2E3FGHIJ1RWXYZ/LB2 |
Departure
| Time | 2026-05-07 22:23 |
|---|---|
| Airport | Copenhagen Kastrup Airport (EKCH) |
Arrival
| Time | 2026-05-07 22:56 |
|---|---|
| Airport | Billund Airport (EKBI) |
| Time | Latitude | Longitude | Altitude | Speed | Heading |
|---|---|---|---|---|---|
| 2026-05-07 22:05 | 55.62881 | 12.63868 | 17 ft | 0 kts | 12° |
| 2026-05-07 22:10 | 55.62872 | 12.63864 | 17 ft | 1 kts | 11° |
| 2026-05-07 22:10 | 55.62851 | 12.63851 | 20 ft | 4 kts | 50° |
| 2026-05-07 22:10 | 55.62845 | 12.63814 | 19 ft | 3 kts | 104° |
| 2026-05-07 22:11 | 55.62851 | 12.63769 | 21 ft | 4 kts | 104° |
| 2026-05-07 22:11 | 55.62856 | 12.63733 | 18 ft | 4 kts | 101° |
| 2026-05-07 22:11 | 55.62859 | 12.63689 | 17 ft | 2 kts | 89° |
| 2026-05-07 22:11 | 55.62859 | 12.63668 | 17 ft | 0 kts | 89° |
| 2026-05-07 22:14 | 55.62859 | 12.63669 | 17 ft | 1 kts | 89° |
| 2026-05-07 22:15 | 55.62858 | 12.63712 | 18 ft | 7 kts | 96° |
| 2026-05-07 22:15 | 55.62843 | 12.63834 | 19 ft | 13 kts | 103° |
| 2026-05-07 22:15 | 55.62794 | 12.63961 | 17 ft | 13 kts | 173° |
| 2026-05-07 22:15 | 55.62713 | 12.63889 | 17 ft | 14 kts | 213° |
| 2026-05-07 22:16 | 55.62631 | 12.63795 | 20 ft | 14 kts | 208° |
| 2026-05-07 22:16 | 55.62530 | 12.63774 | 20 ft | 15 kts | 173° |
| 2026-05-07 22:16 | 55.62435 | 12.63875 | 16 ft | 18 kts | 129° |
| 2026-05-07 22:16 | 55.62357 | 12.64072 | 15 ft | 21 kts | 124° |
| 2026-05-07 22:17 | 55.62266 | 12.64307 | 16 ft | 24 kts | 124° |
| 2026-05-07 22:17 | 55.62152 | 12.64420 | 16 ft | 16 kts | 167° |
| 2026-05-07 22:17 | 55.62046 | 12.64460 | 19 ft | 16 kts | 170° |
| 2026-05-07 22:17 | 55.61934 | 12.64495 | 17 ft | 17 kts | 170° |
| 2026-05-07 22:18 | 55.61815 | 12.64533 | 17 ft | 18 kts | 170° |
| 2026-05-07 22:18 | 55.61584 | 12.64461 | 18 ft | 15 kts | 213° |
| 2026-05-07 22:18 | 55.61493 | 12.64359 | 18 ft | 16 kts | 213° |
| 2026-05-07 22:19 | 55.61388 | 12.64237 | 19 ft | 20 kts | 212° |
| 2026-05-07 22:19 | 55.61265 | 12.64095 | 17 ft | 22 kts | 213° |
| 2026-05-07 22:19 | 55.61135 | 12.63946 | 17 ft | 23 kts | 212° |
| 2026-05-07 22:19 | 55.60999 | 12.63790 | 17 ft | 24 kts | 213° |
| 2026-05-07 22:20 | 55.60855 | 12.63623 | 17 ft | 25 kts | 212° |
| 2026-05-07 22:20 | 55.60702 | 12.63451 | 19 ft | 27 kts | 212° |
| 2026-05-07 22:20 | 55.60561 | 12.63250 | 17 ft | 20 kts | 220° |
| 2026-05-07 22:20 | 55.60482 | 12.63127 | 17 ft | 12 kts | 220° |
| 2026-05-07 22:21 | 55.60406 | 12.63141 | 17 ft | 12 kts | 136° |
| 2026-05-07 22:21 | 55.60390 | 12.63171 | 18 ft | 0 kts | 131° |
| 2026-05-07 22:21 | 55.60389 | 12.63174 | 18 ft | 1 kts | 131° |
| 2026-05-07 22:21 | 55.60377 | 12.63198 | 18 ft | 8 kts | 131° |
| 2026-05-07 22:22 | 55.60328 | 12.63295 | 20 ft | 7 kts | 129° |
| 2026-05-07 22:22 | 55.60339 | 12.63349 | 20 ft | 6 kts | 46° |
| 2026-05-07 22:22 | 55.60385 | 12.63423 | 19 ft | 18 kts | 43° |
| 2026-05-07 22:22 | 55.60717 | 12.63932 | 19 ft | 109 kts | 41° |
| 2026-05-07 22:23 | 55.61452 | 12.65058 | 243 ft | 156 kts | 40° |
| 2026-05-07 22:23 | 55.62290 | 12.66353 | 1061 ft | 160 kts | 41° |
| 2026-05-07 22:23 | 55.63122 | 12.67650 | 1933 ft | 163 kts | 40° |
| 2026-05-07 22:23 | 55.64039 | 12.69046 | 2498 ft | 183 kts | 39° |
| 2026-05-07 22:24 | 55.65057 | 12.70539 | 3086 ft | 198 kts | 35° |
| 2026-05-07 22:24 | 55.66416 | 12.71304 | 3456 ft | 221 kts | 357° |
| 2026-05-07 22:24 | 55.68008 | 12.70699 | 3943 ft | 249 kts | 345° |
| 2026-05-07 22:24 | 55.69725 | 12.69929 | 5053 ft | 257 kts | 347° |
| 2026-05-07 22:25 | 55.71512 | 12.69397 | 6261 ft | 265 kts | 355° |
| 2026-05-07 22:25 | 55.73378 | 12.69173 | 7384 ft | 272 kts | 359° |
| 2026-05-07 22:25 | 55.75288 | 12.69068 | 8554 ft | 277 kts | 359° |
| 2026-05-07 22:25 | 55.77235 | 12.68979 | 9730 ft | 282 kts | 360° |
| 2026-05-07 22:26 | 55.79215 | 12.68777 | 10793 ft | 289 kts | 352° |
| 2026-05-07 22:26 | 55.81196 | 12.67640 | 11408 ft | 314 kts | 332° |
| 2026-05-07 22:26 | 55.82917 | 12.65113 | 12142 ft | 329 kts | 310° |
| 2026-05-07 22:26 | 55.84074 | 12.61557 | 13139 ft | 336 kts | 292° |
| 2026-05-07 22:27 | 55.84930 | 12.57669 | 14240 ft | 339 kts | 291° |
| 2026-05-07 22:27 | 55.85795 | 12.53747 | 15232 ft | 342 kts | 291° |
| 2026-05-07 22:27 | 55.86672 | 12.49780 | 16201 ft | 346 kts | 291° |
| 2026-05-07 22:27 | 55.87561 | 12.45767 | 17161 ft | 351 kts | 291° |
| 2026-05-07 22:28 | 55.88456 | 12.41699 | 18114 ft | 355 kts | 289° |
| 2026-05-07 22:28 | 55.89036 | 12.37398 | 18965 ft | 360 kts | 277° |
| 2026-05-07 22:28 | 55.89063 | 12.32915 | 19767 ft | 365 kts | 264° |
| 2026-05-07 22:28 | 55.88517 | 12.28478 | 20566 ft | 370 kts | 251° |
| 2026-05-07 22:29 | 55.87422 | 12.24296 | 21341 ft | 375 kts | 241° |
| 2026-05-07 22:29 | 55.86147 | 12.20211 | 21964 ft | 380 kts | 241° |
| 2026-05-07 22:29 | 55.84863 | 12.16098 | 22150 ft | 380 kts | 241° |
| 2026-05-07 22:29 | 55.83609 | 12.12070 | 22189 ft | 362 kts | 241° |
| 2026-05-07 22:30 | 55.82422 | 12.08256 | 22187 ft | 354 kts | 241° |
| 2026-05-07 22:30 | 55.81218 | 12.04389 | 22191 ft | 352 kts | 241° |
| 2026-05-07 22:30 | 55.80002 | 12.00479 | 22192 ft | 375 kts | 241° |
| 2026-05-07 22:30 | 55.78715 | 11.96340 | 22192 ft | 399 kts | 241° |
| 2026-05-07 22:31 | 55.77353 | 11.91961 | 22194 ft | 414 kts | 241° |
| 2026-05-07 22:31 | 55.75920 | 11.87370 | 22191 ft | 436 kts | 241° |
| 2026-05-07 22:31 | 55.74426 | 11.82610 | 22192 ft | 444 kts | 241° |
| 2026-05-07 22:31 | 55.72916 | 11.77806 | 22187 ft | 447 kts | 241° |
| 2026-05-07 22:32 | 55.71398 | 11.72982 | 22190 ft | 448 kts | 241° |
| 2026-05-07 22:32 | 55.69879 | 11.68161 | 22189 ft | 448 kts | 241° |
| 2026-05-07 22:32 | 55.68357 | 11.63335 | 22189 ft | 448 kts | 241° |
| 2026-05-07 22:32 | 55.66834 | 11.58514 | 22188 ft | 448 kts | 241° |
| 2026-05-07 22:33 | 55.65305 | 11.53699 | 22188 ft | 448 kts | 240° |
| 2026-05-07 22:33 | 55.63772 | 11.48896 | 22189 ft | 448 kts | 240° |
| 2026-05-07 22:33 | 55.62236 | 11.44091 | 22187 ft | 448 kts | 241° |
| 2026-05-07 22:33 | 55.60966 | 11.39070 | 22179 ft | 448 kts | 253° |
| 2026-05-07 22:34 | 55.60425 | 11.33663 | 22182 ft | 447 kts | 266° |
| 2026-05-07 22:34 | 55.60247 | 11.28172 | 22183 ft | 447 kts | 267° |
| 2026-05-07 22:34 | 55.60081 | 11.22679 | 22183 ft | 447 kts | 267° |
| 2026-05-07 22:34 | 55.59915 | 11.17191 | 22182 ft | 447 kts | 267° |
| 2026-05-07 22:35 | 55.59743 | 11.11699 | 22184 ft | 447 kts | 266° |
| 2026-05-07 22:35 | 55.59562 | 11.06219 | 22184 ft | 447 kts | 266° |
| 2026-05-07 22:35 | 55.59376 | 11.00738 | 22183 ft | 446 kts | 266° |
| 2026-05-07 22:35 | 55.59188 | 10.95336 | 22180 ft | 446 kts | 266° |
| 2026-05-07 22:36 | 55.58994 | 10.89858 | 22178 ft | 446 kts | 266° |
| 2026-05-07 22:36 | 55.58793 | 10.84316 | 22177 ft | 446 kts | 266° |
| 2026-05-07 22:36 | 55.58593 | 10.78841 | 22175 ft | 446 kts | 266° |
| 2026-05-07 22:36 | 55.58394 | 10.73447 | 22173 ft | 446 kts | 266° |
| 2026-05-07 22:37 | 55.58210 | 10.67906 | 22172 ft | 446 kts | 269° |
| 2026-05-07 22:37 | 55.58534 | 10.62495 | 22174 ft | 437 kts | 283° |
| 2026-05-07 22:37 | 55.59296 | 10.57533 | 22187 ft | 411 kts | 285° |
| 2026-05-07 22:37 | 55.60033 | 10.52805 | 22186 ft | 387 kts | 285° |
| 2026-05-07 22:38 | 55.60717 | 10.48367 | 22180 ft | 358 kts | 285° |
| 2026-05-07 22:38 | 55.61359 | 10.44163 | 22184 ft | 351 kts | 285° |
| 2026-05-07 22:38 | 55.61993 | 10.39982 | 22061 ft | 358 kts | 285° |
| 2026-05-07 22:38 | 55.62642 | 10.35688 | 21469 ft | 360 kts | 285° |
| 2026-05-07 22:39 | 55.63283 | 10.31431 | 20962 ft | 356 kts | 285° |
| 2026-05-07 22:39 | 55.63918 | 10.27222 | 20467 ft | 352 kts | 285° |
| 2026-05-07 22:39 | 55.64546 | 10.23058 | 19969 ft | 349 kts | 285° |
| 2026-05-07 22:39 | 55.65169 | 10.18914 | 19475 ft | 349 kts | 285° |
| 2026-05-07 22:40 | 55.65793 | 10.14747 | 18979 ft | 350 kts | 284° |
| 2026-05-07 22:40 | 55.66415 | 10.10584 | 18485 ft | 349 kts | 284° |
| 2026-05-07 22:40 | 55.67033 | 10.06452 | 17949 ft | 346 kts | 284° |
| 2026-05-07 22:40 | 55.67646 | 10.02343 | 17461 ft | 344 kts | 284° |
| 2026-05-07 22:41 | 55.68253 | 9.98258 | 16994 ft | 342 kts | 284° |
| 2026-05-07 22:41 | 55.68853 | 9.94196 | 16520 ft | 340 kts | 284° |
| 2026-05-07 22:41 | 55.69446 | 9.90159 | 16059 ft | 338 kts | 284° |
| 2026-05-07 22:41 | 55.70036 | 9.86142 | 15592 ft | 336 kts | 284° |
| 2026-05-07 22:42 | 55.70625 | 9.82151 | 15128 ft | 334 kts | 284° |
| 2026-05-07 22:42 | 55.71210 | 9.78170 | 14663 ft | 332 kts | 284° |
| 2026-05-07 22:42 | 55.71790 | 9.74211 | 14198 ft | 331 kts | 284° |
| 2026-05-07 22:42 | 55.72366 | 9.70272 | 13702 ft | 329 kts | 284° |
| 2026-05-07 22:43 | 55.72936 | 9.66353 | 13223 ft | 327 kts | 284° |
| 2026-05-07 22:43 | 55.73499 | 9.62452 | 12750 ft | 325 kts | 284° |
| 2026-05-07 22:43 | 55.74056 | 9.58575 | 12279 ft | 323 kts | 284° |
| 2026-05-07 22:43 | 55.74610 | 9.54728 | 11805 ft | 321 kts | 283° |
| 2026-05-07 22:44 | 55.75015 | 9.50857 | 11330 ft | 318 kts | 273° |
| 2026-05-07 22:44 | 55.74986 | 9.47007 | 10863 ft | 315 kts | 265° |
| 2026-05-07 22:44 | 55.74866 | 9.43081 | 10405 ft | 313 kts | 265° |
| 2026-05-07 22:44 | 55.74756 | 9.39359 | 10260 ft | 299 kts | 265° |
| 2026-05-07 22:45 | 55.74651 | 9.35725 | 9978 ft | 292 kts | 265° |
| 2026-05-07 22:45 | 55.74547 | 9.32154 | 9760 ft | 290 kts | 265° |
| 2026-05-07 22:45 | 55.74440 | 9.28562 | 9222 ft | 291 kts | 265° |
| 2026-05-07 22:45 | 55.74333 | 9.25002 | 8685 ft | 290 kts | 265° |
| 2026-05-07 22:46 | 55.74225 | 9.21449 | 8270 ft | 284 kts | 265° |
| 2026-05-07 22:46 | 55.74120 | 9.17997 | 7432 ft | 280 kts | 266° |
| 2026-05-07 22:46 | 55.74014 | 9.14578 | 6774 ft | 273 kts | 266° |
| 2026-05-07 22:46 | 55.73910 | 9.11230 | 6142 ft | 272 kts | 266° |
| 2026-05-07 22:47 | 55.73804 | 9.07863 | 5638 ft | 272 kts | 266° |
| 2026-05-07 22:47 | 55.73699 | 9.04553 | 5034 ft | 265 kts | 266° |
| 2026-05-07 22:47 | 55.73596 | 9.01340 | 4595 ft | 255 kts | 266° |
| 2026-05-07 22:47 | 55.73499 | 8.98297 | 4542 ft | 239 kts | 264° |
| 2026-05-07 22:48 | 55.73408 | 8.95446 | 4509 ft | 221 kts | 264° |
| 2026-05-07 22:48 | 55.73323 | 8.92834 | 4418 ft | 204 kts | 264° |
| 2026-05-07 22:48 | 55.73240 | 8.90361 | 4336 ft | 203 kts | 264° |
| 2026-05-07 22:48 | 55.73158 | 8.87926 | 4245 ft | 191 kts | 264° |
| 2026-05-07 22:49 | 55.73082 | 8.85647 | 4151 ft | 180 kts | 264° |
| 2026-05-07 22:49 | 55.73009 | 8.83462 | 4088 ft | 176 kts | 263° |
| 2026-05-07 22:49 | 55.72948 | 8.81296 | 4014 ft | 176 kts | 269° |
| 2026-05-07 22:49 | 55.73323 | 8.79266 | 3880 ft | 178 kts | 302° |
| 2026-05-07 22:50 | 55.74252 | 8.77935 | 3748 ft | 170 kts | 335° |
| 2026-05-07 22:50 | 55.75386 | 8.77653 | 3595 ft | 163 kts | 7° |
| 2026-05-07 22:50 | 55.76419 | 8.78409 | 3370 ft | 160 kts | 39° |
| 2026-05-07 22:50 | 55.77084 | 8.79904 | 3207 ft | 151 kts | 70° |
| 2026-05-07 22:51 | 55.77273 | 8.81660 | 3064 ft | 141 kts | 97° |
| 2026-05-07 22:51 | 55.77025 | 8.83285 | 2968 ft | 134 kts | 122° |
| 2026-05-07 22:51 | 55.76606 | 8.84763 | 2870 ft | 134 kts | 120° |
| 2026-05-07 22:51 | 55.76198 | 8.86241 | 2768 ft | 133 kts | 120° |
| 2026-05-07 22:52 | 55.75794 | 8.87706 | 2681 ft | 132 kts | 120° |
| 2026-05-07 22:52 | 55.75388 | 8.89167 | 2572 ft | 132 kts | 120° |
| 2026-05-07 22:52 | 55.74985 | 8.90620 | 2465 ft | 131 kts | 120° |
| 2026-05-07 22:52 | 55.74582 | 8.92065 | 2362 ft | 131 kts | 120° |
| 2026-05-07 22:53 | 55.74180 | 8.93508 | 2261 ft | 130 kts | 120° |
| 2026-05-07 22:53 | 55.73779 | 8.94951 | 2166 ft | 130 kts | 119° |
| 2026-05-07 22:53 | 55.73502 | 8.96479 | 2093 ft | 134 kts | 94° |
| 2026-05-07 22:53 | 55.73544 | 8.98129 | 2040 ft | 133 kts | 92° |
| 2026-05-07 22:54 | 55.73555 | 8.99782 | 1892 ft | 134 kts | 95° |
| 2026-05-07 22:54 | 55.73507 | 9.01419 | 1649 ft | 130 kts | 93° |
| 2026-05-07 22:54 | 55.73570 | 9.02976 | 1501 ft | 125 kts | 79° |
| 2026-05-07 22:54 | 55.73688 | 9.04501 | 1351 ft | 124 kts | 85° |
| 2026-05-07 22:55 | 55.73779 | 9.06023 | 1127 ft | 123 kts | 88° |
| 2026-05-07 22:55 | 55.73801 | 9.07528 | 931 ft | 122 kts | 90° |
| 2026-05-07 22:55 | 55.73840 | 9.09021 | 736 ft | 121 kts | 85° |
| 2026-05-07 22:55 | 55.73884 | 9.10500 | 567 ft | 119 kts | 86° |
| 2026-05-07 22:56 | 55.73937 | 9.11972 | 400 ft | 119 kts | 86° |
| 2026-05-07 22:56 | 55.73977 | 9.13373 | 263 ft | 118 kts | 87° |
| 2026-05-07 22:56 | 55.74020 | 9.14743 | 218 ft | 74 kts | 86° |
| 2026-05-07 22:56 | 55.74036 | 9.15281 | 219 ft | 35 kts | 86° |
| 2026-05-07 22:57 | 55.74050 | 9.15717 | 217 ft | 36 kts | 87° |
| 2026-05-07 22:57 | 55.74064 | 9.16167 | 217 ft | 38 kts | 86° |
| 2026-05-07 22:57 | 55.74078 | 9.16616 | 225 ft | 29 kts | 87° |
| 2026-05-07 22:57 | 55.74091 | 9.16863 | 218 ft | 15 kts | 63° |
| 2026-05-07 22:58 | 55.74148 | 9.16901 | 218 ft | 8 kts | 0° |
| 2026-05-07 22:58 | 55.74209 | 9.16902 | 223 ft | 10 kts | 1° |
| 2026-05-07 22:58 | 55.74251 | 9.16856 | 220 ft | 7 kts | 291° |
| 2026-05-07 22:58 | 55.74251 | 9.16765 | 225 ft | 8 kts | 266° |
| 2026-05-07 22:59 | 55.74244 | 9.16560 | 217 ft | 25 kts | 267° |
| 2026-05-07 22:59 | 55.74237 | 9.16339 | 217 ft | 17 kts | 267° |
| 2026-05-07 22:59 | 55.74231 | 9.16115 | 217 ft | 19 kts | 266° |
| 2026-05-07 22:59 | 55.74222 | 9.15871 | 224 ft | 21 kts | 266° |
| 2026-05-07 23:00 | 55.74217 | 9.15697 | 220 ft | 22 kts | 266° |
| 2026-05-07 23:00 | 55.74209 | 9.15413 | 216 ft | 24 kts | 266° |
| 2026-05-07 23:00 | 55.74200 | 9.15146 | 216 ft | 11 kts | 268° |
| 2026-05-07 23:00 | 55.74204 | 9.15037 | 216 ft | 9 kts | 292° |
| 2026-05-07 23:01 | 55.74261 | 9.14994 | 219 ft | 10 kts | 357° |
| 2026-05-07 23:01 | 55.74333 | 9.14988 | 219 ft | 11 kts | 357° |
| 2026-05-07 23:01 | 55.74416 | 9.14979 | 222 ft | 12 kts | 348° |
| 2026-05-07 23:01 | 55.74452 | 9.14853 | 216 ft | 13 kts | 267° |
| 2026-05-07 23:02 | 55.74447 | 9.14711 | 218 ft | 0 kts | 267° |
| 2026-05-07 23:02 | 55.74447 | 9.14708 | 218 ft | 1 kts | 268° |
| 2026-05-07 23:02 | 55.74446 | 9.14653 | 221 ft | 9 kts | 272° |
| 2026-05-07 23:03 | 55.74459 | 9.14630 | 223 ft | 4 kts | 335° |
| 2026-05-07 23:03 | 55.74506 | 9.14619 | 223 ft | 3 kts | 359° |
| 2026-05-07 23:03 | 55.74519 | 9.14619 | 222 ft | 1 kts | 357° |
| 2026-05-07 23:03 | 55.74526 | 9.14618 | 220 ft | 1 kts | 357° |
| 2026-05-07 23:04 | 55.74529 | 9.14618 | 219 ft | 0 kts | 357° |